createdAt,value
2019-05-16T00:01:51.033Z,16.97
2019-05-16T00:04:23.176Z,17.70
2019-05-16T00:06:54.823Z,19.73
2019-05-16T00:09:28.589Z,18.10
2019-05-16T00:12:00.435Z,18.33
2019-05-16T00:14:32.290Z,17.00
2019-05-16T00:17:04.495Z,19.23
2019-05-16T00:19:38.119Z,20.63
2019-05-16T00:22:09.991Z,19.60
2019-05-16T00:24:41.790Z,16.63
2019-05-16T00:27:13.542Z,14.75
2019-05-16T00:29:45.673Z,17.67
2019-05-16T00:32:19.109Z,20.27
2019-05-16T00:34:51.392Z,18.80
2019-05-16T00:37:23.391Z,19.90
2019-05-16T00:39:54.847Z,18.27
2019-05-16T00:42:28.672Z,19.40
2019-05-16T00:45:01.033Z,21.23
2019-05-16T00:47:32.944Z,20.13
2019-05-16T00:50:05.159Z,21.57
2019-05-16T00:52:39.114Z,21.77
2019-05-16T00:55:10.822Z,21.27
2019-05-16T00:57:43.212Z,19.60
2019-05-16T01:00:18.049Z,18.97
2019-05-16T01:02:49.551Z,20.23
2019-05-16T01:05:21.733Z,19.77
2019-05-16T01:07:53.593Z,18.70
2019-05-16T01:10:25.592Z,18.40
2019-05-16T01:12:58.461Z,16.87
2019-05-16T01:15:30.564Z,16.87
2019-05-16T01:18:02.558Z,20.20
2019-05-16T01:20:34.566Z,16.63
2019-05-16T01:23:08.734Z,21.27
2019-05-16T01:25:39.932Z,21.40
2019-05-16T01:28:11.680Z,21.00
2019-05-16T01:30:43.722Z,21.20
2019-05-16T01:33:15.502Z,23.73
2019-05-16T01:35:47.948Z,17.87
2019-05-16T01:38:20.088Z,18.87
2019-05-16T01:40:53.222Z,17.47
2019-05-16T01:43:24.890Z,18.40
2019-05-16T01:45:57.822Z,16.97
2019-05-16T01:48:31.945Z,22.90
2019-05-16T01:51:03.581Z,17.77
2019-05-16T01:53:35.154Z,20.10
2019-05-16T01:56:08.570Z,18.53
2019-05-16T01:58:40.218Z,20.13
2019-05-16T02:01:15.710Z,18.00
2019-05-16T02:03:48.123Z,17.57
2019-05-16T02:06:20.186Z,15.17
2019-05-16T02:08:51.779Z,23.80
2019-05-16T02:11:23.564Z,17.23
2019-05-16T02:13:58.591Z,18.80
2019-05-16T02:16:31.073Z,22.83
2019-05-16T02:19:02.679Z,19.10
2019-05-16T02:21:34.711Z,19.03
2019-05-16T02:24:08.687Z,19.77
2019-05-16T02:26:40.289Z,16.90
2019-05-16T02:29:13.762Z,19.27
2019-05-16T02:31:45.508Z,15.73
2019-05-16T02:34:17.578Z,16.40
2019-05-16T02:37:10.275Z,14.83
2019-05-16T02:39:30.324Z,18.37
2019-05-16T02:42:02.074Z,17.07
2019-05-16T02:44:33.912Z,14.57
2019-05-16T02:47:05.871Z,14.20
2019-05-16T02:49:41.623Z,16.47
2019-05-16T02:52:11.326Z,11.97
2019-05-16T02:54:43.159Z,15.27
2019-05-16T02:57:15.016Z,16.40
2019-05-16T02:59:47.121Z,16.67
2019-05-16T03:02:20.529Z,14.53
2019-05-16T03:04:52.500Z,13.37
2019-05-16T03:07:37.569Z,14.07
2019-05-16T03:10:01.488Z,15.17
2019-05-16T03:12:34.375Z,18.27
2019-05-16T03:15:07.114Z,17.33
2019-05-16T03:17:41.633Z,20.50
2019-05-16T03:20:14.120Z,22.17
2019-05-16T03:22:52.008Z,16.97
2019-05-16T03:25:22.473Z,18.67
2019-05-16T03:27:54.294Z,18.33
2019-05-16T03:30:26.309Z,17.70
2019-05-16T03:33:03.833Z,21.17
2019-05-16T03:35:34.209Z,18.90
2019-05-16T03:38:06.251Z,24.67
2019-05-16T03:40:41.029Z,19.10
2019-05-16T03:43:12.098Z,20.50
2019-05-16T03:45:44.375Z,17.70
2019-05-16T03:48:16.055Z,20.50
2019-05-16T03:50:50.493Z,19.30
2019-05-16T03:53:22.673Z,19.97
2019-05-16T03:55:54.790Z,23.03
2019-05-16T03:58:26.229Z,18.40
2019-05-16T04:01:01.820Z,17.07
2019-05-16T04:03:33.223Z,17.77
2019-05-16T04:06:05.008Z,18.17
2019-05-16T04:08:36.788Z,18.17
2019-05-16T04:11:11.370Z,16.90
2019-05-16T04:13:41.800Z,18.87
2019-05-16T04:16:13.794Z,20.13
2019-05-16T04:18:45.486Z,15.97
2019-05-16T04:21:18.690Z,18.37
2019-05-16T04:23:50.769Z,17.43
2019-05-16T04:26:22.774Z,17.13
2019-05-16T04:28:54.799Z,19.40
2019-05-16T04:31:26.535Z,19.10
2019-05-16T04:34:01.120Z,19.93
2019-05-16T04:36:32.724Z,16.60
2019-05-16T04:39:07.553Z,17.30
2019-05-16T04:41:40.972Z,22.43
2019-05-16T04:44:12.851Z,20.33
2019-05-16T04:46:44.500Z,18.23
2019-05-16T04:49:16.401Z,23.83
2019-05-16T04:51:51.368Z,25.10
2019-05-16T04:54:21.919Z,23.00
2019-05-16T04:56:53.483Z,28.23
2019-05-16T04:59:25.442Z,27.73
2019-05-16T05:01:57.253Z,27.37
2019-05-16T05:04:30.564Z,26.53
2019-05-16T05:07:02.869Z,28.40
2019-05-16T05:09:34.498Z,27.10
2019-05-16T05:12:06.446Z,29.13
2019-05-16T05:14:41.450Z,28.23
2019-05-16T05:17:12.294Z,26.33
2019-05-16T05:19:45.594Z,29.83
2019-05-16T05:22:17.150Z,31.63
2019-05-16T05:24:50.775Z,29.37
2019-05-16T05:27:22.889Z,30.03
2019-05-16T05:29:54.644Z,30.83
2019-05-16T05:32:26.810Z,34.33
2019-05-16T05:34:59.914Z,30.20
2019-05-16T05:37:32.190Z,31.67
2019-05-16T05:40:05.226Z,40.25
2019-05-16T05:42:39.938Z,34.50
2019-05-16T05:45:13.299Z,29.47
2019-05-16T05:47:45.596Z,29.60
2019-05-16T05:50:20.223Z,34.33
2019-05-16T05:52:51.511Z,33.40
2019-05-16T05:55:23.132Z,30.03
2019-05-16T05:57:55.090Z,29.07
2019-05-16T06:00:30.134Z,26.45
2019-05-16T06:03:00.729Z,41.03
2019-05-16T06:05:32.697Z,34.40
2019-05-16T06:08:04.537Z,28.07
2019-05-16T06:10:36.343Z,27.83
2019-05-16T06:13:10.957Z,25.50
2019-05-16T06:15:44.693Z,24.67
2019-05-16T06:18:16.520Z,24.87
2019-05-16T06:20:51.255Z,26.20
2019-05-16T06:23:22.578Z,22.10
2019-05-16T06:25:54.740Z,18.83
2019-05-16T06:28:26.288Z,16.97
2019-05-16T06:31:01.416Z,17.98
2019-05-16T06:33:31.771Z,17.57
2019-05-16T06:36:03.818Z,14.85
2019-05-16T06:38:35.830Z,15.95
2019-05-16T06:41:07.449Z,19.32
2019-05-16T06:43:39.995Z,18.40
2019-05-16T06:46:12.754Z,13.85
2019-05-16T06:48:44.196Z,14.58
2019-05-16T06:51:16.071Z,14.80
2019-05-16T06:53:49.829Z,16.15
2019-05-16T06:56:21.377Z,13.88
2019-05-16T06:58:53.731Z,20.20
2019-05-16T07:01:29.652Z,14.23
2019-05-16T07:04:01.117Z,15.53
2019-05-16T07:06:51.744Z,12.50
2019-05-16T07:09:10.336Z,13.48
2019-05-16T07:11:41.457Z,12.95
2019-05-16T07:14:13.735Z,14.80
2019-05-16T07:16:45.800Z,17.07
2019-05-16T07:19:17.864Z,17.45
2019-05-16T07:21:50.787Z,18.05
2019-05-16T07:24:23.119Z,11.53
2019-05-16T07:26:54.815Z,13.88
2019-05-16T07:29:27.767Z,13.30
2019-05-16T07:32:01.088Z,11.48
2019-05-16T07:34:32.961Z,14.73
2019-05-16T07:37:04.981Z,12.90
2019-05-16T07:39:38.662Z,11.50
2019-05-16T07:42:11.407Z,12.05
2019-05-16T07:44:43.263Z,11.85
2019-05-16T07:47:14.941Z,8.93
2019-05-16T07:49:46.945Z,10.10
2019-05-16T07:52:20.895Z,10.43
2019-05-16T07:54:52.279Z,10.37
2019-05-16T07:57:24.315Z,14.53
2019-05-16T08:00:00.320Z,13.45
2019-05-16T08:02:40.375Z,10.65
2019-05-16T08:05:14.826Z,11.12
2019-05-16T08:07:50.828Z,7.90
2019-05-16T08:10:37.122Z,10.45
2019-05-16T08:13:03.316Z,8.85
2019-05-16T08:15:35.071Z,8.65
2019-05-16T08:18:06.951Z,13.28
2019-05-16T08:20:41.274Z,9.90
2019-05-16T08:23:13.426Z,8.10
2019-05-16T08:25:45.586Z,10.85
2019-05-16T08:28:20.518Z,9.73
2019-05-16T08:30:52.851Z,11.10
2019-05-16T08:33:26.931Z,7.67
2019-05-16T08:36:04.698Z,7.05
2019-05-16T08:38:33.877Z,7.20
2019-05-16T08:41:11.986Z,6.97
2019-05-16T08:43:41.286Z,5.08
2019-05-16T08:46:12.596Z,6.22
2019-05-16T08:48:44.387Z,9.68
2019-05-16T08:51:16.165Z,7.58
2019-05-16T08:53:50.438Z,7.58
2019-05-16T08:56:22.557Z,7.80
2019-05-16T08:58:55.083Z,6.78
2019-05-16T09:01:27.197Z,9.10
2019-05-16T09:04:01.388Z,10.60
2019-05-16T09:06:34.047Z,6.65
2019-05-16T09:10:19.015Z,7.35
2019-05-16T09:11:45.112Z,5.80
2019-05-16T09:14:17.141Z,6.60
2019-05-16T09:16:50.580Z,12.10
2019-05-16T09:19:27.531Z,8.15
2019-05-16T09:21:59.305Z,5.78
2019-05-16T09:24:31.256Z,6.28
2019-05-16T09:27:05.131Z,7.87
2019-05-16T09:29:37.746Z,7.50
2019-05-16T09:32:17.112Z,11.53
2019-05-16T09:34:43.686Z,3.85
2019-05-16T09:37:17.714Z,8.13
2019-05-16T09:39:49.021Z,5.67
2019-05-16T09:42:21.297Z,8.78
2019-05-16T09:44:53.257Z,4.15
2019-05-16T09:47:27.899Z,14.58
2019-05-16T09:49:58.486Z,4.87
2019-05-16T09:52:30.628Z,5.78
2019-05-16T09:55:03.115Z,6.72
2019-05-16T09:57:37.602Z,5.90
2019-05-16T10:00:13.526Z,5.47
2019-05-16T10:02:47.509Z,6.70
2019-05-16T10:05:21.309Z,5.67
2019-05-16T10:08:10.223Z,6.65
2019-05-16T10:10:42.226Z,3.80
2019-05-16T10:13:18.303Z,7.85
2019-05-16T10:15:50.455Z,4.58
2019-05-16T10:18:22.050Z,4.67
2019-05-16T10:20:58.974Z,9.60
2019-05-16T10:23:30.590Z,12.05
2019-05-16T10:26:05.026Z,8.23
2019-05-16T10:28:38.372Z,5.40
2019-05-16T10:31:12.588Z,7.78
2019-05-16T10:33:47.665Z,3.52
2019-05-16T10:36:21.590Z,5.70
2019-05-16T10:38:59.043Z,3.75
2019-05-16T10:41:27.469Z,5.92
2019-05-16T10:44:00.680Z,8.88
2019-05-16T10:46:32.782Z,4.58
2019-05-16T10:49:05.105Z,5.37
2019-05-16T10:51:37.858Z,4.20
2019-05-16T10:54:18.535Z,5.03
2019-05-16T10:56:49.951Z,3.65
2019-05-16T10:59:54.581Z,6.15
2019-05-16T11:02:27.546Z,6.83
2019-05-16T11:05:22.624Z,6.12
2019-05-16T11:07:38.414Z,4.83
2019-05-16T11:10:21.875Z,4.37
2019-05-16T11:13:02.140Z,7.75
2019-05-16T11:15:42.109Z,6.50
2019-05-16T11:18:17.403Z,8.63
2019-05-16T11:20:59.557Z,8.33
2019-05-16T11:23:31.913Z,3.70
2019-05-16T11:26:03.993Z,4.95
2019-05-16T11:28:36.985Z,5.08
2019-05-16T11:31:09.229Z,6.50
2019-05-16T11:33:41.276Z,7.95
2019-05-16T11:36:16.567Z,4.70
2019-05-16T11:38:48.000Z,3.10
2019-05-16T11:41:19.923Z,8.45
2019-05-16T11:43:54.203Z,5.70
2019-05-16T11:46:28.175Z,5.05
2019-05-16T11:49:00.112Z,6.45
2019-05-16T11:51:32.024Z,6.50
2019-05-16T11:54:06.771Z,3.50
2019-05-16T11:56:41.955Z,6.60
2019-05-16T11:59:14.395Z,5.80
2019-05-16T12:01:47.414Z,4.47
2019-05-16T12:04:20.078Z,5.15
2019-05-16T12:06:52.027Z,3.95
2019-05-16T12:09:33.474Z,8.15
2019-05-16T12:12:04.241Z,5.22
2019-05-16T12:14:37.260Z,5.05
2019-05-16T12:17:08.780Z,7.22
2019-05-16T12:19:43.909Z,4.78
2019-05-16T12:22:14.436Z,5.95
2019-05-16T12:24:47.709Z,4.37
2019-05-16T12:27:20.046Z,4.97
2019-05-16T12:29:59.613Z,3.70
2019-05-16T12:32:28.393Z,8.88
2019-05-16T12:35:01.443Z,5.15
2019-05-16T12:37:37.227Z,5.50
2019-05-16T12:40:10.095Z,4.72
2019-05-16T12:42:41.571Z,6.45
2019-05-16T12:45:13.590Z,7.40
2019-05-16T12:47:47.253Z,11.48
2019-05-16T12:50:19.848Z,6.87
2019-05-16T12:52:51.691Z,5.95
2019-05-16T12:55:24.088Z,6.35
2019-05-16T12:58:11.839Z,8.45
2019-05-16T13:00:29.924Z,10.13
2019-05-16T13:03:01.723Z,6.87
2019-05-16T13:05:37.575Z,11.57
2019-05-16T13:08:09.812Z,6.35
2019-05-16T13:10:41.379Z,6.80
2019-05-16T13:13:13.531Z,6.50
2019-05-16T13:15:47.519Z,7.50
2019-05-16T13:18:18.515Z,5.40
2019-05-16T13:20:50.530Z,7.22
2019-05-16T13:23:22.009Z,6.47
2019-05-16T13:25:57.479Z,7.03
2019-05-16T13:28:28.812Z,8.95
2019-05-16T13:31:00.987Z,7.08
2019-05-16T13:33:32.670Z,5.58
2019-05-16T13:36:04.260Z,6.85
2019-05-16T13:39:08.047Z,5.58
2019-05-16T13:41:48.057Z,6.72
2019-05-16T13:44:34.182Z,7.83
2019-05-16T13:47:07.677Z,7.58
2019-05-16T13:49:40.105Z,5.75
2019-05-16T13:52:12.750Z,6.10
2019-05-16T13:54:45.764Z,8.68
2019-05-16T13:57:18.447Z,9.65
2019-05-16T13:59:50.814Z,7.75
2019-05-16T14:02:23.165Z,6.33
2019-05-16T14:04:57.472Z,10.68
2019-05-16T14:07:29.399Z,8.93
2019-05-16T14:10:01.303Z,7.87
2019-05-16T14:12:36.489Z,8.08
2019-05-16T14:15:09.065Z,9.20
2019-05-16T14:17:41.017Z,8.48
2019-05-16T14:20:15.042Z,10.82
2019-05-16T14:22:48.040Z,8.40
2019-05-16T14:25:23.034Z,9.05
2019-05-16T14:27:56.819Z,13.35
2019-05-16T14:30:28.763Z,10.95
2019-05-16T14:33:02.498Z,11.43
2019-05-16T14:35:34.812Z,10.38
2019-05-16T14:38:06.715Z,8.88
2019-05-16T14:40:50.504Z,9.45
2019-05-16T14:43:22.128Z,10.58
2019-05-16T14:45:54.079Z,9.85
2019-05-16T14:48:27.857Z,10.70
2019-05-16T14:50:59.138Z,10.50
2019-05-16T14:53:31.404Z,8.85
2019-05-16T14:56:03.493Z,10.85
2019-05-16T14:58:37.794Z,8.95
2019-05-16T15:01:09.321Z,13.72
2019-05-16T15:03:42.967Z,14.68
2019-05-16T15:06:17.975Z,11.95
2019-05-16T15:08:48.937Z,13.18
2019-05-16T15:11:20.474Z,11.53
2019-05-16T15:13:52.426Z,8.78
2019-05-16T15:16:24.283Z,10.05
2019-05-16T15:18:57.548Z,14.63
2019-05-16T15:21:29.520Z,9.13
2019-05-16T15:24:01.298Z,9.15
2019-05-16T15:26:33.263Z,15.90
2019-05-16T15:29:08.214Z,9.23
2019-05-16T15:31:39.603Z,14.40
2019-05-16T15:34:11.724Z,9.88
2019-05-16T15:36:43.306Z,14.15
2019-05-16T15:39:16.959Z,13.30
2019-05-16T15:41:50.671Z,10.68
2019-05-16T15:44:27.221Z,14.40
2019-05-16T15:46:59.976Z,11.70
2019-05-16T15:49:37.688Z,11.70
2019-05-16T15:52:11.269Z,9.45
2019-05-16T15:54:45.193Z,11.80
2019-05-16T15:57:17.727Z,10.20
2019-05-16T15:59:49.910Z,16.60
2019-05-16T16:02:22.656Z,12.10
2019-05-16T16:04:57.431Z,9.28
2019-05-16T16:07:29.489Z,7.85
2019-05-16T16:10:06.833Z,9.45
2019-05-16T16:12:47.743Z,9.10
2019-05-16T16:15:20.422Z,8.98
2019-05-16T16:17:52.239Z,9.60
2019-05-16T16:20:28.086Z,10.85
2019-05-16T16:23:00.231Z,11.95
2019-05-16T16:25:32.345Z,11.97
2019-05-16T16:28:07.130Z,8.85
2019-05-16T16:30:39.132Z,13.25
2019-05-16T16:33:25.147Z,7.97
2019-05-16T16:35:57.554Z,8.40
2019-05-16T16:38:32.497Z,10.08
2019-05-16T16:41:18.193Z,8.25
2019-05-16T16:43:53.594Z,14.03
2019-05-16T16:46:40.778Z,10.93
2019-05-16T16:49:18.649Z,12.95
2019-05-16T16:51:51.288Z,8.78
2019-05-16T16:54:58.022Z,11.35
2019-05-16T16:57:31.320Z,12.98
2019-05-16T17:00:08.088Z,16.35
2019-05-16T17:06:18.175Z,23.35
2019-05-16T17:13:13.415Z,17.85
2019-05-16T17:16:02.062Z,16.62
2019-05-16T17:19:13.242Z,17.95
2019-05-16T17:22:21.658Z,11.83
2019-05-16T17:25:47.808Z,11.05
2019-05-16T17:28:17.553Z,18.60
2019-05-16T17:30:49.570Z,17.87
2019-05-16T17:33:21.578Z,17.73
2019-05-16T17:35:53.506Z,11.63
2019-05-16T17:39:19.571Z,10.55
2019-05-16T17:46:36.842Z,11.65
2019-05-16T17:49:26.693Z,12.80
2019-05-16T17:56:48.726Z,13.32
2019-05-16T17:59:27.650Z,12.98
2019-05-16T18:02:12.862Z,11.75
2019-05-16T18:04:47.128Z,12.93
2019-05-16T18:07:20.727Z,12.00
2019-05-16T18:09:56.836Z,12.82
2019-05-16T18:12:28.958Z,16.60
2019-05-16T18:15:08.410Z,12.73
2019-05-16T18:17:46.780Z,12.03
2019-05-16T18:20:22.501Z,10.82
2019-05-16T18:22:56.961Z,11.07
2019-05-16T18:25:36.840Z,13.00
2019-05-16T18:28:12.133Z,16.00
2019-05-16T18:30:47.075Z,17.73
2019-05-16T18:33:21.552Z,14.23
2019-05-16T18:35:57.978Z,12.15
2019-05-16T18:38:30.878Z,12.68
2019-05-16T18:41:07.808Z,12.47
2019-05-16T18:43:40.185Z,12.00
2019-05-16T18:46:12.126Z,12.47
2019-05-16T18:48:46.992Z,12.97
2019-05-16T18:51:18.586Z,12.87
2019-05-16T18:53:50.857Z,12.27
2019-05-16T18:56:27.169Z,19.97
2019-05-16T18:58:59.141Z,18.57
2019-05-16T19:01:31.601Z,16.40
2019-05-16T19:04:06.705Z,11.20
2019-05-16T19:06:37.910Z,11.67
2019-05-16T19:09:10.563Z,11.03
2019-05-16T19:11:52.735Z,10.97
2019-05-16T19:14:28.663Z,11.67
2019-05-16T19:17:00.650Z,10.47
2019-05-16T19:19:37.596Z,10.90
2019-05-16T19:22:10.152Z,10.03
2019-05-16T19:24:48.352Z,10.63
2019-05-16T19:27:23.517Z,13.00
2019-05-16T19:29:58.795Z,10.90
2019-05-16T19:32:31.715Z,11.07
2019-05-16T19:35:03.987Z,11.23
2019-05-16T19:37:40.378Z,12.20
2019-05-16T19:40:11.463Z,13.43
2019-05-16T19:42:47.149Z,12.87
2019-05-16T19:45:19.341Z,12.27
2019-05-16T19:47:50.956Z,12.45
2019-05-16T19:50:26.791Z,12.33
2019-05-16T19:52:58.977Z,12.93
2019-05-16T19:55:30.641Z,14.70
2019-05-16T19:58:03.063Z,15.23
2019-05-16T20:00:37.173Z,20.80
2019-05-16T20:03:08.254Z,17.70
2019-05-16T20:05:40.282Z,19.90
2019-05-16T20:08:12.721Z,17.90
2019-05-16T20:10:44.271Z,14.67
2019-05-16T20:13:16.589Z,12.60
2019-05-16T20:15:49.059Z,12.00
2019-05-16T20:18:21.012Z,11.37
2019-05-16T20:20:56.769Z,13.83
2019-05-16T20:23:28.827Z,14.20
2019-05-16T20:26:00.674Z,16.63
2019-05-16T20:28:32.495Z,16.70
2019-05-16T20:31:04.043Z,15.97
2019-05-16T20:33:37.622Z,14.90
2019-05-16T20:36:09.789Z,14.33
2019-05-16T20:38:41.958Z,15.70
2019-05-16T20:41:13.593Z,12.13
2019-05-16T20:43:47.354Z,11.97
2019-05-16T20:46:19.124Z,11.67
2019-05-16T20:48:51.199Z,11.73
2019-05-16T20:51:23.319Z,11.37
2019-05-16T20:53:57.739Z,11.70
2019-05-16T20:56:28.911Z,13.00
2019-05-16T20:59:00.931Z,11.50
2019-05-16T21:01:33.007Z,11.63
2019-05-16T21:04:07.023Z,11.60
2019-05-16T21:06:38.768Z,12.07
2019-05-16T21:09:46.350Z,12.30
2019-05-16T21:12:19.258Z,12.20
2019-05-16T21:14:51.216Z,12.05
2019-05-16T21:17:23.668Z,12.13
2019-05-16T21:19:57.700Z,11.40
2019-05-16T21:22:32.161Z,12.53
2019-05-16T21:25:05.135Z,12.47
2019-05-16T21:27:38.535Z,12.77
2019-05-16T21:30:11.223Z,13.10
2019-05-16T21:32:42.919Z,12.10
2019-05-16T21:35:15.094Z,11.57
2019-05-16T21:37:46.972Z,12.07
2019-05-16T21:40:19.193Z,12.70
2019-05-16T21:42:51.247Z,13.68
2019-05-16T21:45:22.810Z,11.47
2019-05-16T21:47:56.780Z,11.20
2019-05-16T21:50:28.338Z,11.40
2019-05-16T21:53:00.606Z,11.45
2019-05-16T21:55:32.873Z,11.88
2019-05-16T21:58:04.642Z,10.63
2019-05-16T22:00:43.840Z,11.85
2019-05-16T22:03:16.148Z,12.20
2019-05-16T22:05:48.505Z,12.67
2019-05-16T22:08:20.133Z,11.95
2019-05-16T22:10:51.889Z,12.40
2019-05-16T22:13:24.348Z,11.47
2019-05-16T22:15:57.019Z,12.23
2019-05-16T22:18:30.228Z,11.63
2019-05-16T22:21:11.828Z,12.07
2019-05-16T22:23:43.734Z,11.23
2019-05-16T22:26:16.841Z,10.63
2019-05-16T22:28:51.822Z,10.63
2019-05-16T22:31:26.902Z,10.75
2019-05-16T22:34:01.379Z,10.97
2019-05-16T22:36:37.995Z,10.48
2019-05-16T22:39:12.555Z,11.20
2019-05-16T22:41:46.492Z,10.38
2019-05-16T22:44:18.022Z,13.43
2019-05-16T22:46:50.288Z,11.10
2019-05-16T22:49:39.775Z,11.97
2019-05-16T22:52:12.189Z,11.80
2019-05-16T22:54:44.305Z,11.43
2019-05-16T22:57:17.581Z,10.95
2019-05-16T22:59:50.172Z,11.28
2019-05-16T23:02:22.240Z,11.63
2019-05-16T23:04:53.812Z,11.35
2019-05-16T23:07:27.475Z,11.75
2019-05-16T23:09:59.815Z,11.12
2019-05-16T23:12:31.931Z,11.45
2019-05-16T23:15:06.437Z,11.57
2019-05-16T23:17:37.793Z,11.80
2019-05-16T23:20:09.867Z,12.20
2019-05-16T23:22:41.929Z,11.48
2019-05-16T23:25:13.950Z,12.45
2019-05-16T23:27:47.442Z,12.80
2019-05-16T23:30:19.873Z,12.70
2019-05-16T23:32:51.663Z,13.13
2019-05-16T23:35:23.655Z,12.55
2019-05-16T23:37:56.977Z,12.53
2019-05-16T23:40:29.569Z,12.10
2019-05-16T23:43:01.288Z,13.13
2019-05-16T23:45:33.222Z,12.10
2019-05-16T23:48:09.539Z,12.65
2019-05-16T23:50:38.587Z,12.68
2019-05-16T23:53:10.719Z,13.00
2019-05-16T23:55:43.395Z,13.30
2019-05-16T23:58:15.759Z,13.43
